^^
Station Historical Data
 
Daily Summary for February 19, 2017 Units:  English    Metric   Both
« Previous Day
Next Day »
Daily Weekly Monthly Yearly Custom
  Current: High: Low: Average:
Temperature: 36.0 °F 40.7 °F 35.7 °F 38.7 °F
Dew Point: 35.2 °F 39.9 °F 34.7 °F 37.8 °F
Humidity: 97% 97% 96% 97%
Wind Speed: 0.0mph 0.0mph 0.0mph 0mph
Wind Gust: 0.0mph 0.0mph - -
WindCalm - - North
Pressure: 29.37 in 29.42 in 29.36 in -
Precipitation: 0.00 in      
Historical Graphs
 
 
Tabular Data for February 19, 2017
Time Temperature Dew Point Pressure Wind Wind Speed Wind Gust Humidity Rainfall Rate (Hourly) solar Conditions
00:04 40.3 °F 39.5 °F 29.42 in Calm     97% 0.00 in WeatherDisplay:10.37 W/m2 RA
00:09 40.4 °F 39.6 °F 29.42 in Calm     97% 0.00 in WeatherDisplay:10.37 W/m2 RA
00:14 40.5 °F 39.7 °F 29.42 in Calm     97% 0.00 in WeatherDisplay:10.37 W/m2 CLR
00:19 40.5 °F 39.7 °F 29.41 in Calm     97% 0.00 in WeatherDisplay:10.37 W/m2 CLR
00:24 40.5 °F 39.7 °F 29.42 in Calm     97% 0.00 in WeatherDisplay:10.37 W/m2 CLR
00:34 40.6 °F 39.8 °F 29.42 in Calm     97% 0.00 in WeatherDisplay:10.37 W/m2 CLR
00:39 40.7 °F 39.9 °F 29.42 in Calm     97% 0.00 in WeatherDisplay:10.37 W/m2 CLR
00:44 40.7 °F 39.9 °F 29.42 in Calm     97% 0.00 in WeatherDisplay:10.37 W/m2 CLR
00:49 40.7 °F 39.9 °F 29.41 in Calm     97% 0.00 in WeatherDisplay:10.37 W/m2 CLR
00:54 40.7 °F 39.9 °F 29.41 in Calm     97% 0.00 in WeatherDisplay:10.37 W/m2 CLR
00:59 40.6 °F 39.8 °F 29.41 in Calm     97% 0.00 in WeatherDisplay:10.37 W/m2 CLR
01:04 40.5 °F 39.7 °F 29.41 in Calm     97% 0.00 in WeatherDisplay:10.37 W/m2 CLR
01:09 40.5 °F 39.7 °F 29.41 in Calm     97% 0.00 in WeatherDisplay:10.37 W/m2 CLR
01:14 40.4 °F 39.6 °F 29.41 in Calm     97% 0.00 in WeatherDisplay:10.37 W/m2 CLR
01:19 40.4 °F 39.6 °F 29.41 in Calm     97% 0.00 in WeatherDisplay:10.37 W/m2 CLR
01:24 40.4 °F 39.6 °F 29.40 in Calm     97% 0.00 in WeatherDisplay:10.37 W/m2 CLR
01:29 40.2 °F 39.4 °F 29.40 in Calm     97% 0.00 in WeatherDisplay:10.37 W/m2 CLR
01:39 40.0 °F 39.2 °F 29.41 in Calm     97% 0.00 in WeatherDisplay:10.37 W/m2 CLR
01:44 40.0 °F 39.2 °F 29.40 in Calm     97% 0.00 in WeatherDisplay:10.37 W/m2 CLR
01:49 40.1 °F 39.3 °F 29.40 in Calm     97% 0.00 in WeatherDisplay:10.37 W/m2 CLR
01:55 40.2 °F 39.4 °F 29.40 in Calm     97% 0.00 in WeatherDisplay:10.37 W/m2 CLR
02:00 40.2 °F 39.4 °F 29.40 in Calm     97% 0.00 in WeatherDisplay:10.37 W/m2 CLR
02:05 40.2 °F 39.4 °F 29.40 in Calm     97% 0.00 in WeatherDisplay:10.37 W/m2 CLR
02:10 40.0 °F 39.2 °F 29.40 in Calm     97% 0.00 in WeatherDisplay:10.37 W/m2 CLR
02:15 39.9 °F 39.1 °F 29.40 in Calm     97% 0.00 in WeatherDisplay:10.37 W/m2 CLR
02:20 39.8 °F 39.0 °F 29.40 in Calm     97% 0.00 in WeatherDisplay:10.37 W/m2 CLR
02:25 39.8 °F 39.0 °F 29.40 in Calm     97% 0.00 in WeatherDisplay:10.37 W/m2 CLR
02:30 39.7 °F 38.9 °F 29.40 in Calm     97% 0.00 in WeatherDisplay:10.37 W/m2 CLR
02:35 39.6 °F 38.8 °F 29.39 in Calm     97% 0.00 in WeatherDisplay:10.37 W/m2 CLR
02:40 39.6 °F 38.8 °F 29.39 in Calm     97% 0.00 in WeatherDisplay:10.37 W/m2 CLR
02:45 39.5 °F 38.7 °F 29.39 in Calm     97% 0.00 in WeatherDisplay:10.37 W/m2 CLR
02:50 39.3 °F 38.5 °F 29.39 in Calm     97% 0.00 in WeatherDisplay:10.37 W/m2 CLR
02:55 39.2 °F 38.2 °F 29.39 in Calm     96% 0.00 in WeatherDisplay:10.37 W/m2 CLR
03:00 39.2 °F 38.2 °F 29.39 in Calm     96% 0.00 in WeatherDisplay:10.37 W/m2 CLR
03:05 39.2 °F 38.2 °F 29.39 in Calm     96% 0.00 in WeatherDisplay:10.37 W/m2 CLR
03:10 39.1 °F 38.1 °F 29.39 in Calm     96% 0.00 in WeatherDisplay:10.37 W/m2 CLR
03:15 39.0 °F 38.0 °F 29.39 in Calm     96% 0.00 in WeatherDisplay:10.37 W/m2 CLR
03:20 38.9 °F 38.1 °F 29.39 in Calm     97% 0.00 in WeatherDisplay:10.37 W/m2 CLR
03:25 38.9 °F 38.1 °F 29.39 in Calm     97% 0.00 in WeatherDisplay:10.37 W/m2 CLR
03:30 38.9 °F 38.1 °F 29.39 in Calm     97% 0.00 in WeatherDisplay:10.37 W/m2 CLR
03:35 38.9 °F 38.1 °F 29.39 in Calm     97% 0.00 in WeatherDisplay:10.37 W/m2 CLR
03:40 38.8 °F 38.0 °F 29.39 in Calm     97% 0.00 in WeatherDisplay:10.37 W/m2 CLR
03:45 38.7 °F 37.7 °F 29.38 in Calm     96% 0.00 in WeatherDisplay:10.37 W/m2 CLR
03:50 38.7 °F 37.7 °F 29.39 in Calm     96% 0.00 in WeatherDisplay:10.37 W/m2 CLR
03:55 38.6 °F 37.6 °F 29.38 in Calm     96% 0.00 in WeatherDisplay:10.37 W/m2 CLR
04:00 38.6 °F 37.8 °F 29.38 in Calm     97% 0.00 in WeatherDisplay:10.37 W/m2 CLR
04:05 38.4 °F 37.6 °F 29.38 in Calm     97% 0.00 in WeatherDisplay:10.37 W/m2 CLR
04:10 38.1 °F 37.1 °F 29.38 in Calm     96% 0.00 in WeatherDisplay:10.37 W/m2 CLR
04:15 38.0 °F 37.0 °F 29.38 in Calm     96% 0.00 in WeatherDisplay:10.37 W/m2 CLR
04:20 38.0 °F 37.2 °F 29.38 in Calm     97% 0.00 in WeatherDisplay:10.37 W/m2 CLR
04:25 37.5 °F 36.5 °F 29.37 in Calm     96% 0.00 in WeatherDisplay:10.37 W/m2 CLR
04:30 37.5 °F 36.5 °F 29.37 in Calm     96% 0.00 in WeatherDisplay:10.37 W/m2 CLR
04:35 37.2 °F 36.2 °F 29.37 in Calm     96% 0.00 in WeatherDisplay:10.37 W/m2 CLR
04:40 36.9 °F 35.9 °F 29.37 in Calm     96% 0.00 in WeatherDisplay:10.37 W/m2 CLR
04:45 36.7 °F 35.7 °F 29.37 in Calm     96% 0.00 in WeatherDisplay:10.37 W/m2 CLR
04:50 36.5 °F 35.5 °F 29.37 in Calm     96% 0.00 in WeatherDisplay:10.37 W/m2 CLR
04:55 36.1 °F 35.1 °F 29.37 in Calm     96% 0.00 in WeatherDisplay:10.37 W/m2 CLR
05:00 35.9 °F 34.9 °F 29.36 in Calm     96% 0.00 in WeatherDisplay:10.37 W/m2 CLR
05:05 35.9 °F 35.1 °F 29.37 in Calm     97% 0.00 in WeatherDisplay:10.37 W/m2 CLR
05:10 36.0 °F 35.2 °F 29.37 in Calm     97% 0.00 in WeatherDisplay:10.37 W/m2 CLR
05:15 35.7 °F 34.7 °F 29.37 in Calm     96% 0.00 in WeatherDisplay:10.37 W/m2 CLR
05:20 35.7 °F 34.9 °F 29.37 in Calm     97% 0.00 in WeatherDisplay:10.37 W/m2 CLR
05:25 36.0 °F 35.2 °F 29.37 in Calm     97% 0.00 in WeatherDisplay:10.37 W/m2 CLR
05:30 36.2 °F 35.4 °F 29.37 in Calm     97% 0.00 in WeatherDisplay:10.37 W/m2 CLR
05:35 36.4 °F 35.6 °F 29.37 in Calm     97% 0.00 in WeatherDisplay:10.37 W/m2 CLR
05:40 36.6 °F 35.8 °F 29.37 in Calm     97% 0.00 in WeatherDisplay:10.37 W/m2 CLR
05:45 36.6 °F 35.8 °F 29.36 in Calm     97% 0.00 in WeatherDisplay:10.37 W/m2 CLR
05:50 36.4 °F 35.6 °F 29.37 in Calm     97% 0.00 in WeatherDisplay:10.37 W/m2 CLR
05:55 36.2 °F 35.4 °F 29.37 in Calm     97% 0.00 in WeatherDisplay:10.37 W/m2 CLR
06:00 36.1 °F 35.3 °F 29.37 in Calm     97% 0.00 in WeatherDisplay:10.37 W/m2 CLR
06:05 36.0 °F 35.2 °F 29.37 in Calm     97% 0.00 in WeatherDisplay:10.37 W/m2 CLR
06:10 36.0 °F 35.2 °F 29.37 in Calm     97% 0.00 in WeatherDisplay:10.37 W/m2 CLR
Donkey Whisperer Farm
Compliments of Weather Underground - 1.75 mb